sensor_id;sensor_type;location;lat;lon;timestamp;P1;durP1;ratioP1;P2;durP2;ratioP2
14013;SDS011;49110;52.584;13.408;2023-12-28T00:00:35;36.93;;;34.60;;
14013;SDS011;49110;52.584;13.408;2023-12-28T00:01:35;35.87;;;33.63;;
14013;SDS011;49110;52.584;13.408;2023-12-28T00:02:36;35.50;;;33.40;;
14013;SDS011;49110;52.584;13.408;2023-12-28T00:03:36;33.93;;;31.83;;
14013;SDS011;49110;52.584;13.408;2023-12-28T00:04:37;38.10;;;35.67;;
14013;SDS011;49110;52.584;13.408;2023-12-28T00:05:37;35.80;;;33.70;;
14013;SDS011;49110;52.584;13.408;2023-12-28T00:06:37;37.00;;;34.73;;
14013;SDS011;49110;52.584;13.408;2023-12-28T00:07:38;37.20;;;34.63;;
14013;SDS011;49110;52.584;13.408;2023-12-28T00:08:39;35.33;;;33.27;;
14013;SDS011;49110;52.584;13.408;2023-12-28T00:09:40;36.55;;;34.35;;
14013;SDS011;49110;52.584;13.408;2023-12-28T00:10:40;34.40;;;32.43;;
14013;SDS011;49110;52.584;13.408;2023-12-28T00:11:41;37.03;;;34.83;;
14013;SDS011;49110;52.584;13.408;2023-12-28T00:12:41;37.77;;;35.43;;
14013;SDS011;49110;52.584;13.408;2023-12-28T00:13:42;38.00;;;35.77;;
14013;SDS011;49110;52.584;13.408;2023-12-28T00:14:42;37.77;;;35.33;;
14013;SDS011;49110;52.584;13.408;2023-12-28T00:15:43;36.37;;;34.20;;
14013;SDS011;49110;52.584;13.408;2023-12-28T00:16:43;38.77;;;36.43;;
14013;SDS011;49110;52.584;13.408;2023-12-28T00:17:43;35.60;;;33.40;;
14013;SDS011;49110;52.584;13.408;2023-12-28T00:18:44;36.77;;;34.47;;
14013;SDS011;49110;52.584;13.408;2023-12-28T00:19:44;38.13;;;35.83;;
14013;SDS011;49110;52.584;13.408;2023-12-28T00:20:45;38.50;;;36.23;;
14013;SDS011;49110;52.584;13.408;2023-12-28T00:21:46;39.43;;;36.97;;
14013;SDS011;49110;52.584;13.408;2023-12-28T00:22:46;40.43;;;38.03;;
14013;SDS011;49110;52.584;13.408;2023-12-28T00:23:47;38.33;;;36.17;;
14013;SDS011;49110;52.584;13.408;2023-12-28T00:24:47;40.30;;;37.83;;
14013;SDS011;49110;52.584;13.408;2023-12-28T00:25:48;38.27;;;36.00;;
14013;SDS011;49110;52.584;13.408;2023-12-28T00:26:48;36.10;;;33.77;;
14013;SDS011;49110;52.584;13.408;2023-12-28T00:27:49;38.73;;;36.30;;
14013;SDS011;49110;52.584;13.408;2023-12-28T00:28:49;36.00;;;33.67;;
14013;SDS011;49110;52.584;13.408;2023-12-28T00:29:50;38.07;;;35.63;;
14013;SDS011;49110;52.584;13.408;2023-12-28T00:30:50;37.17;;;35.07;;
14013;SDS011;49110;52.584;13.408;2023-12-28T00:31:50;38.80;;;36.30;;
14013;SDS011;49110;52.584;13.408;2023-12-28T00:32:51;38.67;;;36.17;;
14013;SDS011;49110;52.584;13.408;2023-12-28T00:33:51;36.80;;;34.50;;
14013;SDS011;49110;52.584;13.408;2023-12-28T00:34:52;38.13;;;35.80;;
14013;SDS011;49110;52.584;13.408;2023-12-28T00:35:52;37.17;;;34.77;;
14013;SDS011;49110;52.584;13.408;2023-12-28T00:36:53;36.20;;;34.00;;
14013;SDS011;49110;52.584;13.408;2023-12-28T00:37:53;37.60;;;35.40;;
14013;SDS011;49110;52.584;13.408;2023-12-28T00:38:53;37.40;;;35.13;;
14013;SDS011;49110;52.584;13.408;2023-12-28T00:39:54;36.77;;;34.63;;
14013;SDS011;49110;52.584;13.408;2023-12-28T00:40:54;38.83;;;36.53;;
14013;SDS011;49110;52.584;13.408;2023-12-28T00:41:55;35.70;;;33.50;;
14013;SDS011;49110;52.584;13.408;2023-12-28T00:42:55;37.03;;;34.90;;
14013;SDS011;49110;52.584;13.408;2023-12-28T00:43:56;38.87;;;36.47;;
14013;SDS011;49110;52.584;13.408;2023-12-28T00:44:56;37.67;;;35.40;;
14013;SDS011;49110;52.584;13.408;2023-12-28T00:45:57;37.70;;;35.13;;
14013;SDS011;49110;52.584;13.408;2023-12-28T00:46:57;37.23;;;35.17;;
14013;SDS011;49110;52.584;13.408;2023-12-28T00:47:57;37.07;;;34.87;;
14013;SDS011;49110;52.584;13.408;2023-12-28T00:48:58;37.43;;;35.03;;
14013;SDS011;49110;52.584;13.408;2023-12-28T00:49:58;39.07;;;36.77;;
14013;SDS011;49110;52.584;13.408;2023-12-28T00:50:59;36.50;;;34.30;;
14013;SDS011;49110;52.584;13.408;2023-12-28T00:51:59;35.20;;;33.20;;
14013;SDS011;49110;52.584;13.408;2023-12-28T00:53:00;35.87;;;33.83;;
14013;SDS011;49110;52.584;13.408;2023-12-28T00:54:00;36.77;;;34.47;;
14013;SDS011;49110;52.584;13.408;2023-12-28T00:55:01;34.97;;;32.83;;
14013;SDS011;49110;52.584;13.408;2023-12-28T00:56:01;35.90;;;33.70;;
14013;SDS011;49110;52.584;13.408;2023-12-28T00:57:02;37.73;;;35.63;;
14013;SDS011;49110;52.584;13.408;2023-12-28T00:58:03;36.70;;;34.50;;
14013;SDS011;49110;52.584;13.408;2023-12-28T00:59:04;36.70;;;34.60;;
14013;SDS011;49110;52.584;13.408;2023-12-28T01:00:05;34.37;;;32.50;;
14013;SDS011;49110;52.584;13.408;2023-12-28T01:01:06;35.28;;;33.25;;
14013;SDS011;49110;52.584;13.408;2023-12-28T01:02:06;36.13;;;34.03;;
14013;SDS011;49110;52.584;13.408;2023-12-28T01:03:06;36.47;;;34.20;;
14013;SDS011;49110;52.584;13.408;2023-12-28T01:04:07;34.27;;;32.03;;
14013;SDS011;49110;52.584;13.408;2023-12-28T01:05:07;34.43;;;32.43;;
14013;SDS011;49110;52.584;13.408;2023-12-28T01:06:08;34.07;;;32.00;;
14013;SDS011;49110;52.584;13.408;2023-12-28T01:07:08;34.80;;;32.70;;
14013;SDS011;49110;52.584;13.408;2023-12-28T01:08:09;33.90;;;31.67;;
14013;SDS011;49110;52.584;13.408;2023-12-28T01:09:09;33.83;;;32.00;;
14013;SDS011;49110;52.584;13.408;2023-12-28T01:10:10;35.30;;;33.30;;
14013;SDS011;49110;52.584;13.408;2023-12-28T01:11:10;34.30;;;32.20;;
14013;SDS011;49110;52.584;13.408;2023-12-28T01:12:12;34.88;;;32.88;;
14013;SDS011;49110;52.584;13.408;2023-12-28T01:13:12;33.23;;;31.17;;
14013;SDS011;49110;52.584;13.408;2023-12-28T01:14:13;36.00;;;33.97;;
14013;SDS011;49110;52.584;13.408;2023-12-28T01:15:13;36.03;;;34.00;;
14013;SDS011;49110;52.584;13.408;2023-12-28T01:16:14;33.93;;;32.07;;
14013;SDS011;49110;52.584;13.408;2023-12-28T01:17:14;36.30;;;34.10;;
14013;SDS011;49110;52.584;13.408;2023-12-28T01:18:15;35.07;;;32.87;;
14013;SDS011;49110;52.584;13.408;2023-12-28T01:19:15;35.73;;;33.77;;
14013;SDS011;49110;52.584;13.408;2023-12-28T01:20:16;37.60;;;35.50;;
14013;SDS011;49110;52.584;13.408;2023-12-28T01:21:16;36.93;;;34.83;;
14013;SDS011;49110;52.584;13.408;2023-12-28T01:22:17;37.67;;;35.57;;
14013;SDS011;49110;52.584;13.408;2023-12-28T01:23:17;35.60;;;33.63;;
14013;SDS011;49110;52.584;13.408;2023-12-28T01:24:18;36.27;;;34.27;;
14013;SDS011;49110;52.584;13.408;2023-12-28T01:25:19;37.77;;;35.43;;
14013;SDS011;49110;52.584;13.408;2023-12-28T01:26:19;38.07;;;35.97;;
14013;SDS011;49110;52.584;13.408;2023-12-28T01:27:20;37.17;;;35.07;;
14013;SDS011;49110;52.584;13.408;2023-12-28T01:28:20;38.43;;;36.27;;
14013;SDS011;49110;52.584;13.408;2023-12-28T01:29:21;36.43;;;34.33;;
14013;SDS011;49110;52.584;13.408;2023-12-28T01:30:21;34.17;;;32.03;;
14013;SDS011;49110;52.584;13.408;2023-12-28T01:31:22;34.63;;;32.50;;
14013;SDS011;49110;52.584;13.408;2023-12-28T01:32:22;35.17;;;33.17;;
14013;SDS011;49110;52.584;13.408;2023-12-28T01:33:23;35.00;;;33.10;;
14013;SDS011;49110;52.584;13.408;2023-12-28T01:34:23;35.13;;;33.03;;
14013;SDS011;49110;52.584;13.408;2023-12-28T01:35:24;38.03;;;36.03;;
14013;SDS011;49110;52.584;13.408;2023-12-28T01:36:24;35.57;;;33.37;;
14013;SDS011;49110;52.584;13.408;2023-12-28T01:37:25;37.55;;;35.38;;
14013;SDS011;49110;52.584;13.408;2023-12-28T01:38:30;34.00;;;32.08;;
14013;SDS011;49110;52.584;13.408;2023-12-28T01:39:30;33.63;;;31.73;;
14013;SDS011;49110;52.584;13.408;2023-12-28T01:40:31;36.77;;;34.77;;
14013;SDS011;49110;52.584;13.408;2023-12-28T01:41:32;37.17;;;35.07;;
14013;SDS011;49110;52.584;13.408;2023-12-28T01:42:32;35.33;;;33.27;;
14013;SDS011;49110;52.584;13.408;2023-12-28T01:43:33;35.00;;;33.07;;
14013;SDS011;49110;52.584;13.408;2023-12-28T01:44:33;36.20;;;34.10;;
14013;SDS011;49110;52.584;13.408;2023-12-28T01:45:34;32.87;;;31.03;;
14013;SDS011;49110;52.584;13.408;2023-12-28T01:46:34;36.23;;;34.20;;
14013;SDS011;49110;52.584;13.408;2023-12-28T01:47:35;35.47;;;33.37;;
14013;SDS011;49110;52.584;13.408;2023-12-28T01:48:35;35.77;;;33.77;;
14013;SDS011;49110;52.584;13.408;2023-12-28T01:49:36;34.37;;;32.40;;
14013;SDS011;49110;52.584;13.408;2023-12-28T01:50:37;36.40;;;34.30;;
14013;SDS011;49110;52.584;13.408;2023-12-28T01:51:38;34.97;;;32.93;;
14013;SDS011;49110;52.584;13.408;2023-12-28T01:52:39;31.35;;;29.38;;
14013;SDS011;49110;52.584;13.408;2023-12-28T01:53:41;35.30;;;33.42;;
14013;SDS011;49110;52.584;13.408;2023-12-28T01:54:42;32.42;;;30.60;;
14013;SDS011;49110;52.584;13.408;2023-12-28T01:55:43;34.70;;;32.70;;
14013;SDS011;49110;52.584;13.408;2023-12-28T01:56:44;34.53;;;32.57;;
14013;SDS011;49110;52.584;13.408;2023-12-28T01:57:45;33.00;;;31.10;;
14013;SDS011;49110;52.584;13.408;2023-12-28T01:58:46;32.70;;;30.83;;
14013;SDS011;49110;52.584;13.408;2023-12-28T01:59:48;32.75;;;30.77;;
14013;SDS011;49110;52.584;13.408;2023-12-28T02:00:49;34.93;;;32.97;;
14013;SDS011;49110;52.584;13.408;2023-12-28T02:01:50;34.63;;;32.80;;
14013;SDS011;49110;52.584;13.408;2023-12-28T02:02:50;35.77;;;33.87;;
14013;SDS011;49110;52.584;13.408;2023-12-28T02:03:52;32.47;;;30.73;;
14013;SDS011;49110;52.584;13.408;2023-12-28T02:04:54;34.30;;;32.38;;
14013;SDS011;49110;52.584;13.408;2023-12-28T02:05:54;33.53;;;31.77;;
14013;SDS011;49110;52.584;13.408;2023-12-28T02:06:56;35.43;;;33.57;;
14013;SDS011;49110;52.584;13.408;2023-12-28T02:07:58;33.92;;;32.10;;
14013;SDS011;49110;52.584;13.408;2023-12-28T02:08:58;34.50;;;32.70;;
14013;SDS011;49110;52.584;13.408;2023-12-28T02:09:59;35.77;;;33.67;;
14013;SDS011;49110;52.584;13.408;2023-12-28T02:10:59;35.03;;;33.13;;
14013;SDS011;49110;52.584;13.408;2023-12-28T02:12:00;35.83;;;33.83;;
14013;SDS011;49110;52.584;13.408;2023-12-28T02:13:00;35.83;;;33.90;;
14013;SDS011;49110;52.584;13.408;2023-12-28T02:14:01;33.53;;;31.63;;
14013;SDS011;49110;52.584;13.408;2023-12-28T02:15:01;33.37;;;31.57;;
14013;SDS011;49110;52.584;13.408;2023-12-28T02:16:46;34.63;;;32.80;;
14013;SDS011;49110;52.584;13.408;2023-12-28T02:17:38;24.95;;;23.65;;
14013;SDS011;49110;52.584;13.408;2023-12-28T02:18:48;27.20;;;25.70;;
14013;SDS011;49110;52.584;13.408;2023-12-28T02:19:54;28.67;;;27.10;;
14013;SDS011;49110;52.584;13.408;2023-12-28T02:20:55;30.50;;;28.90;;
14013;SDS011;49110;52.584;13.408;2023-12-28T02:21:59;27.85;;;26.35;;
14013;SDS011;49110;52.584;13.408;2023-12-28T02:23:00;29.92;;;28.40;;
14013;SDS011;49110;52.584;13.408;2023-12-28T02:24:01;29.70;;;27.97;;
14013;SDS011;49110;52.584;13.408;2023-12-28T02:25:05;28.90;;;27.37;;
14013;SDS011;49110;52.584;13.408;2023-12-28T02:26:06;28.65;;;26.98;;
14013;SDS011;49110;52.584;13.408;2023-12-28T02:27:07;28.03;;;26.57;;
14013;SDS011;49110;52.584;13.408;2023-12-28T02:28:07;29.43;;;27.87;;
14013;SDS011;49110;52.584;13.408;2023-12-28T02:29:08;27.37;;;25.80;;
14013;SDS011;49110;52.584;13.408;2023-12-28T02:30:10;26.57;;;25.13;;
14013;SDS011;49110;52.584;13.408;2023-12-28T02:31:14;28.50;;;27.00;;
14013;SDS011;49110;52.584;13.408;2023-12-28T02:32:37;26.17;;;24.65;;
14013;SDS011;49110;52.584;13.408;2023-12-28T02:33:58;22.33;;;21.05;;
14013;SDS011;49110;52.584;13.408;2023-12-28T02:35:32;27.40;;;25.90;;
14013;SDS011;49110;52.584;13.408;2023-12-28T02:36:52;19.75;;;18.65;;
14013;SDS011;49110;52.584;13.408;2023-12-28T02:37:55;26.50;;;25.00;;
14013;SDS011;49110;52.584;13.408;2023-12-28T02:38:58;27.87;;;26.33;;
14013;SDS011;49110;52.584;13.408;2023-12-28T02:40:01;28.85;;;27.15;;
14013;SDS011;49110;52.584;13.408;2023-12-28T02:41:02;29.37;;;27.70;;
14013;SDS011;49110;52.584;13.408;2023-12-28T02:42:03;29.27;;;27.65;;
14013;SDS011;49110;52.584;13.408;2023-12-28T02:43:07;29.40;;;27.73;;
14013;SDS011;49110;52.584;13.408;2023-12-28T02:44:08;30.20;;;28.65;;
14013;SDS011;49110;52.584;13.408;2023-12-28T02:45:09;30.07;;;28.47;;
14013;SDS011;49110;52.584;13.408;2023-12-28T02:46:09;29.07;;;27.57;;
14013;SDS011;49110;52.584;13.408;2023-12-28T02:47:10;29.63;;;28.07;;
14013;SDS011;49110;52.584;13.408;2023-12-28T02:48:10;29.33;;;27.83;;
14013;SDS011;49110;52.584;13.408;2023-12-28T02:49:11;28.87;;;27.37;;
14013;SDS011;49110;52.584;13.408;2023-12-28T02:50:11;29.77;;;28.17;;
14013;SDS011;49110;52.584;13.408;2023-12-28T02:51:12;28.40;;;26.90;;
14013;SDS011;49110;52.584;13.408;2023-12-28T02:52:13;29.77;;;28.17;;
14013;SDS011;49110;52.584;13.408;2023-12-28T02:53:13;29.13;;;27.53;;
14013;SDS011;49110;52.584;13.408;2023-12-28T02:54:13;27.10;;;25.70;;
14013;SDS011;49110;52.584;13.408;2023-12-28T02:55:14;26.97;;;25.57;;
14013;SDS011;49110;52.584;13.408;2023-12-28T02:56:14;27.27;;;25.87;;
14013;SDS011;49110;52.584;13.408;2023-12-28T02:57:15;26.03;;;24.73;;
14013;SDS011;49110;52.584;13.408;2023-12-28T02:58:18;25.92;;;24.63;;
14013;SDS011;49110;52.584;13.408;2023-12-28T02:59:19;26.42;;;25.02;;
14013;SDS011;49110;52.584;13.408;2023-12-28T03:00:20;25.13;;;23.83;;
14013;SDS011;49110;52.584;13.408;2023-12-28T03:01:21;22.33;;;21.13;;
14013;SDS011;49110;52.584;13.408;2023-12-28T03:02:21;18.13;;;17.13;;
14013;SDS011;49110;52.584;13.408;2023-12-28T03:03:21;18.07;;;17.10;;
14013;SDS011;49110;52.584;13.408;2023-12-28T03:04:22;20.93;;;19.77;;
14013;SDS011;49110;52.584;13.408;2023-12-28T03:05:22;19.23;;;18.20;;
14013;SDS011;49110;52.584;13.408;2023-12-28T03:06:23;21.77;;;20.60;;
14013;SDS011;49110;52.584;13.408;2023-12-28T03:07:23;22.00;;;20.80;;
14013;SDS011;49110;52.584;13.408;2023-12-28T03:08:24;21.33;;;20.23;;
14013;SDS011;49110;52.584;13.408;2023-12-28T03:09:24;21.97;;;20.87;;
14013;SDS011;49110;52.584;13.408;2023-12-28T03:10:25;28.90;;;27.40;;
14013;SDS011;49110;52.584;13.408;2023-12-28T03:11:25;30.70;;;29.10;;
14013;SDS011;49110;52.584;13.408;2023-12-28T03:12:26;26.00;;;24.70;;
14013;SDS011;49110;52.584;13.408;2023-12-28T03:13:27;28.13;;;26.63;;
14013;SDS011;49110;52.584;13.408;2023-12-28T03:14:28;26.50;;;25.13;;
14013;SDS011;49110;52.584;13.408;2023-12-28T03:15:28;26.00;;;24.60;;
14013;SDS011;49110;52.584;13.408;2023-12-28T03:16:29;25.03;;;23.57;;
14013;SDS011;49110;52.584;13.408;2023-12-28T03:17:29;24.30;;;23.10;;
14013;SDS011;49110;52.584;13.408;2023-12-28T03:18:30;25.35;;;24.05;;
14013;SDS011;49110;52.584;13.408;2023-12-28T03:19:31;24.10;;;22.90;;
14013;SDS011;49110;52.584;13.408;2023-12-28T03:20:31;24.40;;;23.20;;
14013;SDS011;49110;52.584;13.408;2023-12-28T03:21:31;23.13;;;21.93;;
14013;SDS011;49110;52.584;13.408;2023-12-28T03:22:32;22.40;;;21.30;;
14013;SDS011;49110;52.584;13.408;2023-12-28T03:23:33;22.60;;;21.43;;
14013;SDS011;49110;52.584;13.408;2023-12-28T03:24:33;24.30;;;23.00;;
14013;SDS011;49110;52.584;13.408;2023-12-28T03:25:34;24.67;;;23.40;;
14013;SDS011;49110;52.584;13.408;2023-12-28T03:26:38;24.47;;;23.27;;
14013;SDS011;49110;52.584;13.408;2023-12-28T03:27:38;24.25;;;22.98;;
14013;SDS011;49110;52.584;13.408;2023-12-28T03:28:39;22.90;;;21.60;;
14013;SDS011;49110;52.584;13.408;2023-12-28T03:29:43;23.92;;;22.73;;
14013;SDS011;49110;52.584;13.408;2023-12-28T03:30:44;22.63;;;21.45;;
14013;SDS011;49110;52.584;13.408;2023-12-28T03:31:44;23.43;;;22.23;;
14013;SDS011;49110;52.584;13.408;2023-12-28T03:32:45;22.57;;;21.47;;
14013;SDS011;49110;52.584;13.408;2023-12-28T03:33:45;22.20;;;21.07;;
14013;SDS011;49110;52.584;13.408;2023-12-28T03:34:46;19.57;;;18.57;;
14013;SDS011;49110;52.584;13.408;2023-12-28T03:35:46;19.33;;;18.33;;
14013;SDS011;49110;52.584;13.408;2023-12-28T03:36:46;21.60;;;20.50;;
14013;SDS011;49110;52.584;13.408;2023-12-28T03:37:47;21.20;;;20.10;;
14013;SDS011;49110;52.584;13.408;2023-12-28T03:38:47;18.80;;;17.90;;
14013;SDS011;49110;52.584;13.408;2023-12-28T03:39:48;19.53;;;18.53;;
14013;SDS011;49110;52.584;13.408;2023-12-28T03:40:48;23.97;;;22.77;;
14013;SDS011;49110;52.584;13.408;2023-12-28T03:41:50;25.48;;;24.17;;
14013;SDS011;49110;52.584;13.408;2023-12-28T03:42:50;23.57;;;22.37;;
14013;SDS011;49110;52.584;13.408;2023-12-28T03:43:51;26.20;;;24.80;;
14013;SDS011;49110;52.584;13.408;2023-12-28T03:44:51;26.50;;;25.10;;
14013;SDS011;49110;52.584;13.408;2023-12-28T03:45:51;26.83;;;25.47;;
14013;SDS011;49110;52.584;13.408;2023-12-28T03:46:53;25.63;;;24.33;;
14013;SDS011;49110;52.584;13.408;2023-12-28T03:47:53;24.67;;;23.40;;
14013;SDS011;49110;52.584;13.408;2023-12-28T03:48:54;25.17;;;23.87;;
14013;SDS011;49110;52.584;13.408;2023-12-28T03:49:54;22.67;;;21.47;;
14013;SDS011;49110;52.584;13.408;2023-12-28T03:50:56;24.70;;;23.40;;
14013;SDS011;49110;52.584;13.408;2023-12-28T03:51:57;26.20;;;24.80;;
14013;SDS011;49110;52.584;13.408;2023-12-28T03:52:57;27.00;;;25.63;;
14013;SDS011;49110;52.584;13.408;2023-12-28T03:53:58;28.08;;;26.65;;
14013;SDS011;49110;52.584;13.408;2023-12-28T03:54:59;29.23;;;27.73;;
14013;SDS011;49110;52.584;13.408;2023-12-28T03:55:59;28.83;;;27.40;;
14013;SDS011;49110;52.584;13.408;2023-12-28T03:57:00;32.37;;;30.77;;
14013;SDS011;49110;52.584;13.408;2023-12-28T03:58:01;33.13;;;31.43;;
14013;SDS011;49110;52.584;13.408;2023-12-28T03:59:01;30.87;;;29.37;;
14013;SDS011;49110;52.584;13.408;2023-12-28T04:00:01;30.37;;;28.77;;
14013;SDS011;49110;52.584;13.408;2023-12-28T04:01:02;28.23;;;26.80;;
14013;SDS011;49110;52.584;13.408;2023-12-28T04:02:03;26.97;;;25.57;;
14013;SDS011;49110;52.584;13.408;2023-12-28T04:03:04;26.63;;;25.33;;
14013;SDS011;49110;52.584;13.408;2023-12-28T04:04:04;26.13;;;24.83;;
14013;SDS011;49110;52.584;13.408;2023-12-28T04:05:04;28.00;;;26.57;;
14013;SDS011;49110;52.584;13.408;2023-12-28T04:06:07;27.13;;;25.75;;
14013;SDS011;49110;52.584;13.408;2023-12-28T04:07:07;29.10;;;27.53;;
14013;SDS011;49110;52.584;13.408;2023-12-28T04:08:07;28.43;;;27.03;;
14013;SDS011;49110;52.584;13.408;2023-12-28T04:09:08;26.10;;;24.70;;
14013;SDS011;49110;52.584;13.408;2023-12-28T04:10:10;26.90;;;25.58;;
14013;SDS011;49110;52.584;13.408;2023-12-28T04:11:11;29.80;;;28.30;;
14013;SDS011;49110;52.584;13.408;2023-12-28T04:12:11;29.33;;;27.93;;
14013;SDS011;49110;52.584;13.408;2023-12-28T04:13:12;29.20;;;27.73;;
14013;SDS011;49110;52.584;13.408;2023-12-28T04:14:12;28.80;;;27.30;;
14013;SDS011;49110;52.584;13.408;2023-12-28T04:15:13;28.67;;;27.07;;
14013;SDS011;49110;52.584;13.408;2023-12-28T04:16:14;27.90;;;26.40;;
14013;SDS011;49110;52.584;13.408;2023-12-28T04:17:15;31.25;;;29.65;;
14013;SDS011;49110;52.584;13.408;2023-12-28T04:18:15;29.03;;;27.57;;
14013;SDS011;49110;52.584;13.408;2023-12-28T04:19:15;31.83;;;30.23;;
14013;SDS011;49110;52.584;13.408;2023-12-28T04:20:16;29.17;;;27.77;;
14013;SDS011;49110;52.584;13.408;2023-12-28T04:21:17;27.70;;;26.30;;
14013;SDS011;49110;52.584;13.408;2023-12-28T04:22:17;28.67;;;27.17;;
14013;SDS011;49110;52.584;13.408;2023-12-28T04:23:17;29.93;;;28.33;;
14013;SDS011;49110;52.584;13.408;2023-12-28T04:24:18;29.57;;;28.13;;
14013;SDS011;49110;52.584;13.408;2023-12-28T04:25:18;31.20;;;29.63;;
14013;SDS011;49110;52.584;13.408;2023-12-28T04:26:19;31.80;;;30.27;;
14013;SDS011;49110;52.584;13.408;2023-12-28T04:27:20;31.50;;;29.90;;
14013;SDS011;49110;52.584;13.408;2023-12-28T04:28:21;28.80;;;27.40;;
14013;SDS011;49110;52.584;13.408;2023-12-28T04:29:21;29.70;;;28.27;;
14013;SDS011;49110;52.584;13.408;2023-12-28T04:30:21;32.73;;;31.03;;
14013;SDS011;49110;52.584;13.408;2023-12-28T04:31:22;33.60;;;31.90;;
14013;SDS011;49110;52.584;13.408;2023-12-28T04:32:22;30.83;;;29.23;;
14013;SDS011;49110;52.584;13.408;2023-12-28T04:33:24;31.25;;;29.75;;
14013;SDS011;49110;52.584;13.408;2023-12-28T04:34:24;31.17;;;29.57;;
14013;SDS011;49110;52.584;13.408;2023-12-28T04:35:24;31.33;;;29.77;;
14013;SDS011;49110;52.584;13.408;2023-12-28T04:36:25;29.77;;;28.37;;
14013;SDS011;49110;52.584;13.408;2023-12-28T04:37:25;31.17;;;29.57;;
14013;SDS011;49110;52.584;13.408;2023-12-28T04:38:26;28.65;;;27.15;;
14013;SDS011;49110;52.584;13.408;2023-12-28T04:39:27;28.30;;;26.97;;
14013;SDS011;49110;52.584;13.408;2023-12-28T04:40:27;27.63;;;26.03;;
14013;SDS011;49110;52.584;13.408;2023-12-28T04:41:28;24.53;;;23.30;;
14013;SDS011;49110;52.584;13.408;2023-12-28T04:42:29;23.77;;;22.53;;
14013;SDS011;49110;52.584;13.408;2023-12-28T04:43:29;26.50;;;25.20;;
14013;SDS011;49110;52.584;13.408;2023-12-28T04:44:30;26.23;;;24.93;;
14013;SDS011;49110;52.584;13.408;2023-12-28T04:45:30;25.37;;;24.13;;
14013;SDS011;49110;52.584;13.408;2023-12-28T04:46:31;24.90;;;23.60;;
14013;SDS011;49110;52.584;13.408;2023-12-28T04:47:31;25.90;;;24.60;;
14013;SDS011;49110;52.584;13.408;2023-12-28T04:48:32;24.53;;;23.30;;
14013;SDS011;49110;52.584;13.408;2023-12-28T04:49:32;22.40;;;21.30;;
14013;SDS011;49110;52.584;13.408;2023-12-28T04:50:33;21.23;;;20.23;;
14013;SDS011;49110;52.584;13.408;2023-12-28T04:51:33;21.37;;;20.37;;
14013;SDS011;49110;52.584;13.408;2023-12-28T04:52:34;21.63;;;20.33;;
14013;SDS011;49110;52.584;13.408;2023-12-28T04:53:34;19.60;;;18.60;;
14013;SDS011;49110;52.584;13.408;2023-12-28T04:54:35;20.53;;;19.53;;
14013;SDS011;49110;52.584;13.408;2023-12-28T04:55:35;19.27;;;18.27;;
14013;SDS011;49110;52.584;13.408;2023-12-28T04:56:36;23.33;;;22.13;;
14013;SDS011;49110;52.584;13.408;2023-12-28T04:57:36;21.50;;;20.30;;
14013;SDS011;49110;52.584;13.408;2023-12-28T04:58:37;19.43;;;18.43;;
14013;SDS011;49110;52.584;13.408;2023-12-28T04:59:40;21.37;;;20.27;;
14013;SDS011;49110;52.584;13.408;2023-12-28T05:00:41;18.17;;;17.27;;
14013;SDS011;49110;52.584;13.408;2023-12-28T05:01:41;19.77;;;18.77;;
14013;SDS011;49110;52.584;13.408;2023-12-28T05:02:42;20.23;;;19.25;;
14013;SDS011;49110;52.584;13.408;2023-12-28T05:03:43;20.73;;;19.73;;
14013;SDS011;49110;52.584;13.408;2023-12-28T05:04:43;20.33;;;19.33;;
14013;SDS011;49110;52.584;13.408;2023-12-28T05:05:44;20.03;;;18.93;;
14013;SDS011;49110;52.584;13.408;2023-12-28T05:06:44;19.60;;;18.60;;
14013;SDS011;49110;52.584;13.408;2023-12-28T05:07:45;18.70;;;17.70;;
14013;SDS011;49110;52.584;13.408;2023-12-28T05:08:45;16.93;;;16.13;;
14013;SDS011;49110;52.584;13.408;2023-12-28T05:09:46;16.43;;;15.63;;
14013;SDS011;49110;52.584;13.408;2023-12-28T05:10:46;17.03;;;16.13;;
14013;SDS011;49110;52.584;13.408;2023-12-28T05:11:47;17.63;;;16.73;;
14013;SDS011;49110;52.584;13.408;2023-12-28T05:12:47;17.53;;;16.43;;
14013;SDS011;49110;52.584;13.408;2023-12-28T05:13:48;18.50;;;17.60;;
14013;SDS011;49110;52.584;13.408;2023-12-28T05:14:48;17.97;;;17.00;;
14013;SDS011;49110;52.584;13.408;2023-12-28T05:15:48;16.37;;;15.53;;
14013;SDS011;49110;52.584;13.408;2023-12-28T05:16:49;17.77;;;16.87;;
14013;SDS011;49110;52.584;13.408;2023-12-28T05:17:50;17.47;;;16.60;;
14013;SDS011;49110;52.584;13.408;2023-12-28T05:18:50;18.17;;;17.17;;
14013;SDS011;49110;52.584;13.408;2023-12-28T05:19:51;19.27;;;18.37;;
14013;SDS011;49110;52.584;13.408;2023-12-28T05:20:51;18.57;;;17.67;;
14013;SDS011;49110;52.584;13.408;2023-12-28T05:21:51;17.63;;;16.80;;
14013;SDS011;49110;52.584;13.408;2023-12-28T05:22:52;18.10;;;17.10;;
14013;SDS011;49110;52.584;13.408;2023-12-28T05:23:52;17.73;;;16.87;;
14013;SDS011;49110;52.584;13.408;2023-12-28T05:24:53;18.03;;;17.10;;
14013;SDS011;49110;52.584;13.408;2023-12-28T05:25:53;17.73;;;16.83;;
14013;SDS011;49110;52.584;13.408;2023-12-28T05:26:54;17.17;;;16.33;;
14013;SDS011;49110;52.584;13.408;2023-12-28T05:27:54;19.13;;;18.13;;
14013;SDS011;49110;52.584;13.408;2023-12-28T05:28:55;17.87;;;16.97;;
14013;SDS011;49110;52.584;13.408;2023-12-28T05:29:55;19.27;;;18.27;;
14013;SDS011;49110;52.584;13.408;2023-12-28T05:30:55;19.67;;;18.63;;
14013;SDS011;49110;52.584;13.408;2023-12-28T05:31:58;19.73;;;18.73;;
14013;SDS011;49110;52.584;13.408;2023-12-28T05:32:59;21.60;;;20.50;;
14013;SDS011;49110;52.584;13.408;2023-12-28T05:33:59;19.77;;;18.77;;
14013;SDS011;49110;52.584;13.408;2023-12-28T05:35:00;19.00;;;18.03;;
14013;SDS011;49110;52.584;13.408;2023-12-28T05:36:01;21.23;;;20.17;;
14013;SDS011;49110;52.584;13.408;2023-12-28T05:37:02;19.00;;;18.00;;
14013;SDS011;49110;52.584;13.408;2023-12-28T05:38:02;17.60;;;16.33;;
14013;SDS011;49110;52.584;13.408;2023-12-28T05:39:03;19.50;;;18.50;;
14013;SDS011;49110;52.584;13.408;2023-12-28T05:40:04;20.70;;;19.70;;
14013;SDS011;49110;52.584;13.408;2023-12-28T05:41:05;19.13;;;18.13;;
14013;SDS011;49110;52.584;13.408;2023-12-28T05:42:05;18.57;;;17.67;;
14013;SDS011;49110;52.584;13.408;2023-12-28T05:43:06;17.77;;;16.87;;
14013;SDS011;49110;52.584;13.408;2023-12-28T05:44:06;20.43;;;19.43;;
14013;SDS011;49110;52.584;13.408;2023-12-28T05:45:07;21.47;;;20.17;;
14013;SDS011;49110;52.584;13.408;2023-12-28T05:46:07;20.63;;;19.63;;
14013;SDS011;49110;52.584;13.408;2023-12-28T05:47:08;19.17;;;18.17;;
14013;SDS011;49110;52.584;13.408;2023-12-28T05:48:08;20.47;;;19.47;;
14013;SDS011;49110;52.584;13.408;2023-12-28T05:49:09;19.50;;;18.55;;
14013;SDS011;49110;52.584;13.408;2023-12-28T05:50:10;22.77;;;21.27;;
14013;SDS011;49110;52.584;13.408;2023-12-28T05:51:10;23.90;;;22.70;;
14013;SDS011;49110;52.584;13.408;2023-12-28T05:52:11;24.83;;;23.63;;